Time;durP1;ratioP1;P1;durP2;ratioP2;P2;SDS_P1;SDS_P2;PMS_P1;PMS_P2;Temp;Humidity;BMP_temperature;BMP_pressure;BME280_temperature;BME280_humidity;BME280_pressure;Samples;Min_cycle;Max_cycle;Signal;HPM_P1;HPM_P2
2022/09/20 00:00:48;;;;;;;11.20;9.90;;;9.30;99.90;;;;;;5110033;28;20196;-49
2022/09/20 00:03:16;;;;;;;11.67;9.33;;;9.30;99.90;;;;;;5110797;28;20570;-49
2022/09/20 00:05:45;;;;;;;6.80;5.70;;;9.30;99.90;;;;;;5108274;28;20202;-50
2022/09/20 00:08:14;;;;;;;6.27;4.83;;;9.30;99.90;;;;;;5109344;28;20222;-50
2022/09/20 00:10:41;;;;;;;3.97;3.60;;;9.30;99.90;;;;;;5112682;28;20251;-49
2022/09/20 00:13:12;;;;;;;3.77;2.87;;;9.30;99.90;;;;;;5111275;28;20213;-49
2022/09/20 00:15:41;;;;;;;3.13;2.60;;;9.30;99.90;;;;;;5104022;28;20617;-49
2022/09/20 00:18:08;;;;;;;2.17;2.07;;;9.20;99.90;;;;;;5108456;28;20790;-50
2022/09/20 00:20:35;;;;;;;4.10;2.10;;;9.20;99.90;;;;;;5112291;28;20201;-49
2022/09/20 00:23:02;;;;;;;3.47;2.67;;;9.20;99.90;;;;;;5112357;28;20222;-49
2022/09/20 00:25:30;;;;;;;2.67;2.47;;;9.10;99.90;;;;;;5112481;28;20197;-50
2022/09/20 00:27:57;;;;;;;3.17;1.80;;;9.10;99.90;;;;;;5101340;28;20332;-49
2022/09/20 00:30:25;;;;;;;1.57;1.20;;;9.00;99.90;;;;;;5106984;28;20229;-50
2022/09/20 00:32:52;;;;;;;2.70;1.57;;;9.00;99.90;;;;;;5112328;28;20743;-50
2022/09/20 00:35:18;;;;;;;3.87;3.47;;;9.00;99.90;;;;;;5111171;28;20268;-49
2022/09/20 00:37:45;;;;;;;2.53;2.43;;;9.10;99.90;;;;;;5109229;28;20730;-50
2022/09/20 00:40:15;;;;;;;3.93;2.30;;;9.00;99.90;;;;;;5107681;28;20206;-48
2022/09/20 00:42:42;;;;;;;1.87;1.77;;;9.00;99.90;;;;;;5113465;28;20216;-49
2022/09/20 00:45:20;;;;;;;3.77;2.03;;;9.00;99.90;;;;;;5115831;28;20197;-49
2022/09/20 00:47:53;;;;;;;2.50;1.50;;;8.90;99.90;;;;;;5113699;28;20221;-49
2022/09/20 00:50:28;;;;;;;7.33;2.03;;;9.00;99.90;;;;;;5113991;28;20251;-49
2022/09/20 00:53:01;;;;;;;1.83;1.73;;;9.00;99.90;;;;;;5115849;28;20197;-48
2022/09/20 00:55:29;;;;;;;2.17;2.07;;;8.90;99.90;;;;;;5115907;28;20202;-49
2022/09/20 00:57:56;;;;;;;1.30;1.20;;;8.80;99.90;;;;;;5110507;28;20221;-49
2022/09/20 01:00:23;;;;;;;2.73;0.80;;;8.80;99.90;;;;;;5115435;28;20617;-49
2022/09/20 01:02:56;;;;;;;1.37;0.90;;;8.80;99.90;;;;;;5113364;28;20230;-49
2022/09/20 01:05:24;;;;;;;1.50;0.77;;;8.90;99.90;;;;;;5111294;28;20202;-49
2022/09/20 01:07:52;;;;;;;0.87;0.83;;;8.90;99.90;;;;;;5112951;28;20226;-50
2022/09/20 01:10:19;;;;;;;1.40;1.10;;;8.80;99.90;;;;;;5114423;28;20229;-50
2022/09/20 01:12:47;;;;;;;3.07;0.60;;;8.80;99.90;;;;;;5105052;28;20198;-49
2022/09/20 01:15:15;;;;;;;1.23;0.87;;;8.70;99.90;;;;;;5111294;28;20805;-49
2022/09/20 01:17:45;;;;;;;2.53;1.33;;;8.60;99.90;;;;;;5112170;28;20317;-49
2022/09/20 01:20:18;;;;;;;1.20;0.80;;;8.60;99.90;;;;;;5108808;28;21314;-49
2022/09/20 01:22:59;;;;;;;0.97;0.90;;;8.60;99.90;;;;;;5115460;28;20218;-50
2022/09/20 01:25:46;;;;;;;2.10;0.90;;;8.60;99.90;;;;;;5113593;28;20254;-49
2022/09/20 01:28:15;;;;;;;1.73;0.80;;;8.60;99.90;;;;;;5104454;28;20213;-49
2022/09/20 01:30:47;;;;;;;1.10;0.80;;;8.50;99.90;;;;;;5108200;28;20264;-49
2022/09/20 01:33:23;;;;;;;0.97;0.60;;;8.50;99.90;;;;;;5114995;28;20269;-49
2022/09/20 01:35:51;;;;;;;0.63;0.57;;;8.60;99.90;;;;;;5115358;28;20205;-50
2022/09/20 01:38:34;;;;;;;0.90;0.90;;;8.50;99.90;;;;;;5105796;28;20293;-50
2022/09/20 01:41:06;;;;;;;0.80;0.47;;;8.60;99.90;;;;;;5100369;28;20197;-49
2022/09/20 01:43:40;;;;;;;0.90;0.80;;;8.60;99.90;;;;;;5112642;28;20779;-48
2022/09/20 01:46:18;;;;;;;1.70;0.90;;;8.50;99.90;;;;;;5107172;28;20737;-48
2022/09/20 01:48:45;;;;;;;2.50;1.00;;;8.50;99.90;;;;;;5113498;28;20280;-49
2022/09/20 01:51:43;;;;;;;1.53;0.87;;;8.40;99.90;;;;;;5114195;28;20247;-49
2022/09/20 01:54:41;;;;;;;1.43;0.70;;;8.30;99.90;;;;;;5108938;28;20246;-50
2022/09/20 01:57:35;;;;;;;1.10;1.00;;;8.10;99.90;;;;;;5109110;28;20198;-50
2022/09/20 02:00:10;;;;;;;1.27;1.27;;;8.00;99.90;;;;;;5109927;28;20636;-49
2022/09/20 02:03:16;;;;;;;1.57;1.00;;;7.90;99.90;;;;;;5102368;28;20278;-49
2022/09/20 02:06:14;;;;;;;2.40;1.30;;;7.90;99.90;;;;;;5107708;28;20716;-49
2022/09/20 02:09:20;;;;;;;2.37;1.03;;;7.90;99.90;;;;;;5087779;28;20292;-49
2022/09/20 02:11:59;;;;;;;1.97;1.00;;;8.00;99.90;;;;;;5112227;28;20243;-50
2022/09/20 02:14:44;;;;;;;0.70;0.70;;;8.10;99.90;;;;;;5113487;28;20200;-49
2022/09/20 02:17:16;;;;;;;0.80;0.80;;;8.10;99.90;;;;;;5101975;28;20753;-48
2022/09/20 02:20:13;;;;;;;1.53;0.60;;;8.10;99.90;;;;;;5111509;28;20209;-49
2022/09/20 02:22:53;;;;;;;1.47;0.90;;;8.10;99.90;;;;;;5114142;28;20216;-49
2022/09/20 02:25:38;;;;;;;1.93;0.83;;;8.10;99.90;;;;;;5114172;28;20254;-48
2022/09/20 02:28:17;;;;;;;1.47;0.83;;;8.10;99.90;;;;;;5108227;28;20221;-49
2022/09/20 02:30:52;;;;;;;0.90;0.50;;;8.00;99.90;;;;;;5113875;28;20657;-49
2022/09/20 02:33:51;;;;;;;1.17;1.17;;;8.00;99.90;;;;;;5096957;28;20201;-50
2022/09/20 02:36:38;;;;;;;1.97;0.60;;;8.10;99.90;;;;;;5093464;28;20257;-49
2022/09/20 02:39:13;;;;;;;0.80;0.80;;;8.10;99.90;;;;;;5105169;28;20221;-49
2022/09/20 02:42:03;;;;;;;0.73;0.70;;;8.10;99.90;;;;;;5107531;28;20211;-49
2022/09/20 02:44:53;;;;;;;0.80;0.80;;;8.10;99.90;;;;;;5109567;28;20284;-49
2022/09/20 02:47:27;;;;;;;1.37;0.90;;;8.10;99.90;;;;;;5099129;28;20209;-49
2022/09/20 02:50:11;;;;;;;2.87;0.90;;;8.00;99.90;;;;;;5109606;28;20670;-49
2022/09/20 02:52:46;;;;;;;0.60;0.60;;;8.00;99.90;;;;;;5105171;28;20285;-49
2022/09/20 02:55:17;;;;;;;2.30;0.43;;;7.90;99.90;;;;;;5111857;28;20205;-48
2022/09/20 02:57:53;;;;;;;1.30;0.90;;;7.90;99.90;;;;;;5105847;28;20309;-49
2022/09/20 03:00:24;;;;;;;0.53;0.50;;;7.80;99.90;;;;;;5110354;28;20241;-51
2022/09/20 03:03:06;;;;;;;0.50;0.50;;;7.80;99.90;;;;;;5109880;28;20210;-48
2022/09/20 03:05:46;;;;;;;1.57;0.70;;;7.80;99.90;;;;;;5104588;28;20209;-50
2022/09/20 03:08:31;;;;;;;0.73;0.60;;;7.70;99.90;;;;;;5098030;28;20221;-50
2022/09/20 03:11:08;;;;;;;1.93;1.57;;;7.70;99.90;;;;;;5112060;28;20708;-49
2022/09/20 03:13:54;;;;;;;0.67;0.67;;;7.70;99.90;;;;;;5107579;28;20201;-49
2022/09/20 03:16:32;;;;;;;0.80;0.60;;;7.70;99.90;;;;;;5106344;28;20198;-50
2022/09/20 03:19:11;;;;;;;2.50;0.97;;;7.70;99.90;;;;;;5105755;28;20271;-49
2022/09/20 03:21:52;;;;;;;1.03;0.57;;;7.70;99.90;;;;;;5110830;28;20289;-50
2022/09/20 03:24:29;;;;;;;0.70;0.70;;;7.60;99.90;;;;;;5104859;28;20205;-50
2022/09/20 03:27:04;;;;;;;1.80;0.70;;;7.60;99.90;;;;;;5107564;28;20213;-49
2022/09/20 03:29:48;;;;;;;1.00;1.00;;;7.60;99.90;;;;;;5111069;28;20274;-50
2022/09/20 03:32:35;;;;;;;1.00;1.00;;;7.60;99.90;;;;;;5101696;28;20243;-49
2022/09/20 03:35:16;;;;;;;0.67;0.63;;;7.50;99.90;;;;;;5102472;28;20255;-49
2022/09/20 03:38:01;;;;;;;3.53;1.00;;;7.60;99.90;;;;;;5102400;28;20586;-50
2022/09/20 03:41:07;;;;;;;1.17;1.10;;;7.50;99.90;;;;;;5106875;28;20251;-49
2022/09/20 03:43:54;;;;;;;1.30;1.30;;;7.50;99.90;;;;;;5081146;28;20278;-49
2022/09/20 03:46:25;;;;;;;1.00;1.00;;;7.50;99.90;;;;;;5104005;28;20250;-50
2022/09/20 03:49:29;;;;;;;2.07;1.80;;;7.50;99.90;;;;;;5111095;28;20230;-48
2022/09/20 03:52:04;;;;;;;3.63;1.43;;;7.60;99.90;;;;;;5108952;28;20236;-49
2022/09/20 03:55:04;;;;;;;1.53;1.47;;;7.50;99.90;;;;;;5100168;28;20209;-48
2022/09/20 03:58:02;;;;;;;1.33;1.17;;;7.60;99.90;;;;;;5105718;28;20223;-49
2022/09/20 04:00:42;;;;;;;1.57;0.87;;;7.50;99.90;;;;;;5107591;28;20199;-49
2022/09/20 04:03:22;;;;;;;1.27;1.00;;;7.50;99.90;;;;;;5101950;28;20214;-49
2022/09/20 04:06:10;;;;;;;1.97;0.87;;;7.50;99.90;;;;;;5105783;28;20196;-49
2022/09/20 04:08:56;;;;;;;1.70;1.30;;;7.50;99.90;;;;;;5095814;28;20310;-48
2022/09/20 04:11:31;;;;;;;1.90;1.23;;;7.50;99.90;;;;;;5107989;28;20201;-49
2022/09/20 04:14:09;;;;;;;1.63;1.20;;;7.50;99.90;;;;;;5107906;28;20680;-49
2022/09/20 04:16:43;;;;;;;3.50;1.87;;;7.50;99.90;;;;;;5105484;28;20195;-49
2022/09/20 04:19:23;;;;;;;2.30;1.73;;;7.50;99.90;;;;;;5105174;28;20230;-49
2022/09/20 04:21:56;;;;;;;1.40;1.40;;;7.50;99.90;;;;;;5103244;28;20200;-49
2022/09/20 04:24:33;;;;;;;3.37;1.87;;;7.40;99.90;;;;;;5099486;28;20219;-49
2022/09/20 04:27:05;;;;;;;1.20;1.10;;;7.40;99.90;;;;;;5110294;28;20201;-49
2022/09/20 04:29:40;;;;;;;1.30;1.10;;;7.40;99.90;;;;;;5106281;28;20702;-49
2022/09/20 04:32:17;;;;;;;1.13;1.03;;;7.40;99.90;;;;;;5102958;28;20249;-49
2022/09/20 04:37:35;;;;;;;1.50;1.47;;;7.30;99.90;;;;;;5112038;28;20225;-49
2022/09/20 04:40:32;;;;;;;2.10;1.10;;;7.30;99.90;;;;;;5102214;28;20277;-49
2022/09/20 04:43:30;;;;;;;1.33;1.00;;;7.20;99.90;;;;;;5103972;28;20229;-49
2022/09/20 04:46:16;;;;;;;2.53;1.30;;;7.20;99.90;;;;;;5108082;28;20229;-49
2022/09/20 04:49:31;;;;;;;2.43;1.30;;;7.30;99.90;;;;;;5102832;28;20269;-50
2022/09/20 04:52:27;;;;;;;1.30;1.20;;;7.20;99.90;;;;;;5084959;28;20206;-49
2022/09/20 04:55:37;;;;;;;2.70;1.20;;;7.20;99.90;;;;;;5102941;28;20198;-49
2022/09/20 04:58:31;;;;;;;1.53;1.43;;;7.20;99.90;;;;;;5103532;28;20265;-50
2022/09/20 05:01:34;;;;;;;1.43;1.13;;;7.20;99.90;;;;;;5110049;28;20232;-48
2022/09/20 05:04:49;;;;;;;2.20;2.10;;;7.20;99.90;;;;;;5109280;28;20292;-48
2022/09/20 05:07:59;;;;;;;3.93;2.33;;;7.20;99.90;;;;;;5105658;28;20227;-50
2022/09/20 05:11:03;;;;;;;4.07;1.60;;;7.20;99.90;;;;;;5106614;28;20687;-49
2022/09/20 05:13:44;;;;;;;2.80;2.60;;;7.20;99.90;;;;;;5095862;28;20268;-49
2022/09/20 05:16:21;;;;;;;3.03;2.83;;;7.10;99.90;;;;;;5107296;28;20223;-49
2022/09/20 05:19:03;;;;;;;3.63;3.33;;;7.20;99.90;;;;;;5108141;28;20611;-48
2022/09/20 05:22:18;;;;;;;3.60;3.33;;;7.20;99.90;;;;;;5109269;28;20246;-49
2022/09/20 05:25:24;;;;;;;3.27;3.00;;;7.10;99.90;;;;;;5054879;28;20196;-49
2022/09/20 05:27:57;;;;;;;7.47;2.50;;;7.20;99.90;;;;;;5061088;28;20258;-49
2022/09/20 05:30:36;;;;;;;2.57;2.37;;;7.10;99.90;;;;;;5086635;28;20667;-49
2022/09/20 05:33:15;;;;;;;2.10;1.80;;;7.10;99.90;;;;;;5114793;28;20759;-48
2022/09/20 05:35:49;;;;;;;2.40;2.20;;;7.10;99.90;;;;;;5111444;28;20211;-49
2022/09/20 05:38:27;;;;;;;2.70;1.83;;;7.20;99.90;;;;;;5114958;28;20221;-49
2022/09/20 05:41:09;;;;;;;2.07;1.97;;;7.30;99.90;;;;;;5094585;28;20268;-50
2022/09/20 05:43:46;;;;;;;5.87;1.97;;;7.30;99.90;;;;;;5100321;28;20217;-50
2022/09/20 05:46:31;;;;;;;2.07;1.97;;;7.50;99.90;;;;;;5110983;28;20197;-49
2022/09/20 05:49:07;;;;;;;3.47;1.87;;;7.60;99.90;;;;;;5114666;28;20217;-50
2022/09/20 05:51:49;;;;;;;4.65;1.73;;;7.60;99.90;;;;;;5114409;28;20450;-49
2022/09/20 05:54:51;;;;;;;2.47;1.60;;;7.60;99.90;;;;;;5105099;28;20207;-49
2022/09/20 05:57:29;;;;;;;1.97;1.80;;;7.60;99.90;;;;;;5103444;28;20204;-49
2022/09/20 06:00:06;;;;;;;1.47;1.40;;;7.50;99.90;;;;;;5103864;27;20682;-49
2022/09/20 06:02:43;;;;;;;2.00;1.77;;;7.50;99.90;;;;;;5106397;28;20741;-49
2022/09/20 06:05:15;;;;;;;5.37;2.43;;;7.50;99.90;;;;;;5096250;28;20576;-49
2022/09/20 06:08:11;;;;;;;5.67;1.70;;;7.50;99.90;;;;;;5106808;28;20225;-49
2022/09/20 06:10:57;;;;;;;2.03;1.70;;;7.60;99.90;;;;;;5114250;28;20621;-49
2022/09/20 06:13:39;;;;;;;2.10;1.90;;;8.00;99.90;;;;;;5110437;28;20241;-49
2022/09/20 06:16:10;;;;;;;5.63;2.03;;;8.60;99.90;;;;;;5093830;28;20247;-51
2022/09/20 06:18:46;;;;;;;1.80;1.70;;;9.10;99.90;;;;;;5094335;28;20234;-49
2022/09/20 06:21:23;;;;;;;8.37;2.37;;;9.60;99.90;;;;;;5093969;28;20225;-48
2022/09/20 06:23:51;;;;;;;3.27;1.80;;;10.00;99.90;;;;;;5111954;28;20289;-49
2022/09/20 06:26:23;;;;;;;2.07;1.80;;;10.10;99.90;;;;;;5113719;28;20205;-48
2022/09/20 06:28:54;;;;;;;4.83;1.10;;;10.10;99.90;;;;;;5112014;28;20258;-49
2022/09/20 06:31:22;;;;;;;2.77;1.53;;;10.20;99.90;;;;;;5112938;28;20198;-49
2022/09/20 06:33:55;;;;;;;3.83;1.57;;;10.20;99.90;;;;;;5108655;28;20266;-49
2022/09/20 06:42:09;;;;;;;4.33;1.50;;;9.80;99.90;;;;;;5097331;28;20327;-48
2022/09/20 06:44:40;;;;;;;2.10;1.00;;;9.80;99.90;;;;;;5113057;28;20308;-49
2022/09/20 06:47:08;;;;;;;1.60;1.30;;;9.70;99.90;;;;;;5103119;28;20439;-48
2022/09/20 06:49:38;;;;;;;1.73;1.20;;;9.60;99.90;;;;;;5109325;28;20237;-49
2022/09/20 06:52:05;;;;;;;2.53;1.17;;;9.70;99.90;;;;;;5101649;28;20194;-49
2022/09/20 06:54:33;;;;;;;3.20;1.27;;;9.70;99.90;;;;;;5113240;28;20203;-49
2022/09/20 06:57:02;;;;;;;5.23;1.40;;;9.70;99.90;;;;;;5111138;28;20254;-48
2022/09/20 06:59:29;;;;;;;2.87;1.23;;;9.70;99.90;;;;;;5110235;28;20696;-49
2022/09/20 07:01:56;;;;;;;3.13;1.13;;;9.80;99.90;;;;;;5106090;28;20672;-49
2022/09/20 07:04:25;;;;;;;4.00;1.10;;;9.80;99.90;;;;;;5113169;28;20649;-50
2022/09/20 07:06:59;;;;;;;0.80;0.73;;;9.90;99.90;;;;;;5113509;28;20202;-48
2022/09/20 07:09:26;;;;;;;1.27;0.90;;;9.90;99.90;;;;;;5107848;28;20695;-49
2022/09/20 07:11:54;;;;;;;4.50;1.63;;;10.00;99.90;;;;;;5109572;27;20208;-49
2022/09/20 07:14:22;;;;;;;2.50;0.80;;;10.10;99.90;;;;;;5112843;28;20816;-49
2022/09/20 07:16:49;;;;;;;2.83;0.80;;;10.20;99.90;;;;;;5111813;28;20256;-49
2022/09/20 07:19:16;;;;;;;2.97;1.20;;;10.20;99.90;;;;;;5102307;28;20275;-49
2022/09/20 07:21:44;;;;;;;1.07;0.67;;;10.30;99.90;;;;;;5113021;28;20288;-50
2022/09/20 07:24:13;;;;;;;0.73;0.70;;;10.30;99.90;;;;;;5119379;27;20211;-48
2022/09/20 07:26:54;;;;;;;1.93;0.70;;;10.40;99.90;;;;;;5109659;28;20196;-50
2022/09/20 07:29:21;;;;;;;0.73;0.70;;;10.50;99.90;;;;;;5113102;27;20299;-50
2022/09/20 07:31:49;;;;;;;0.90;0.70;;;10.70;99.90;;;;;;5133124;27;20223;-50
2022/09/20 07:34:19;;;;;;;0.67;0.67;;;10.70;99.90;;;;;;5132946;27;20736;-48
2022/09/20 07:36:46;;;;;;;1.70;0.80;;;10.90;99.90;;;;;;5110522;28;20679;-48
2022/09/20 07:39:14;;;;;;;0.40;0.40;;;11.20;99.90;;;;;;5112817;28;20287;-49
2022/09/20 07:41:42;;;;;;;0.60;0.60;;;11.40;99.90;;;;;;5111411;28;20201;-50
2022/09/20 07:44:20;;;;;;;0.73;0.73;;;11.70;99.90;;;;;;5092328;28;20244;-49
2022/09/20 07:46:48;;;;;;;0.77;0.77;;;11.80;99.90;;;;;;5110947;28;20658;-50
2022/09/20 07:49:15;;;;;;;1.27;0.63;;;12.00;99.90;;;;;;5107996;28;20233;-49
2022/09/20 07:51:42;;;;;;;1.53;0.70;;;12.10;99.90;;;;;;5112605;28;20220;-49
2022/09/20 07:54:09;;;;;;;2.70;1.40;;;12.40;99.90;;;;;;5112307;28;20669;-49
2022/09/20 07:56:37;;;;;;;1.80;0.80;;;13.00;99.90;;;;;;5109947;28;20259;-49
2022/09/20 07:59:05;;;;;;;0.90;0.90;;;13.70;99.90;;;;;;5107476;28;20228;-48
2022/09/20 08:01:31;;;;;;;1.20;1.10;;;14.20;99.90;;;;;;5092580;28;20196;-49
2022/09/20 08:03:59;;;;;;;1.90;0.77;;;14.80;99.90;;;;;;5111557;28;20263;-50
2022/09/20 08:06:26;;;;;;;2.30;0.77;;;15.40;99.90;;;;;;5110334;28;20730;-49
2022/09/20 08:08:53;;;;;;;0.47;0.47;;;16.50;99.90;;;;;;5112087;28;20630;-49
2022/09/20 08:11:24;;;;;;;1.13;1.07;;;17.40;99.90;;;;;;5108811;28;20200;-50
2022/09/20 08:13:53;;;;;;;0.93;0.80;;;18.20;99.90;;;;;;5107397;28;20661;-50
2022/09/20 08:16:21;;;;;;;1.17;0.70;;;18.70;99.90;;;;;;5105469;28;20287;-50
2022/09/20 08:18:51;;;;;;;4.10;1.23;;;18.70;99.90;;;;;;5095492;28;20219;-50
2022/09/20 08:21:18;;;;;;;1.03;0.77;;;19.30;99.90;;;;;;5109157;28;20278;-50
2022/09/20 08:23:47;;;;;;;1.40;0.80;;;19.60;99.90;;;;;;5109387;28;20215;-50
2022/09/20 08:26:17;;;;;;;0.67;0.67;;;20.10;99.90;;;;;;5112112;28;20208;-50
2022/09/20 08:28:45;;;;;;;3.50;1.27;;;19.80;99.90;;;;;;5112271;28;20262;-51
2022/09/20 08:31:18;;;;;;;1.17;0.90;;;19.90;99.90;;;;;;5110065;28;20188;-51
2022/09/20 08:33:46;;;;;;;0.57;0.57;;;20.10;99.90;;;;;;5107998;28;20206;-51
2022/09/20 08:36:15;;;;;;;0.63;0.63;;;20.10;99.90;;;;;;5111972;28;20195;-51
2022/09/20 08:38:42;;;;;;;1.60;0.70;;;20.20;99.90;;;;;;5111831;28;20215;-50
2022/09/20 08:41:12;;;;;;;1.77;1.00;;;20.50;99.90;;;;;;5110479;28;20290;-50
2022/09/20 08:43:43;;;;;;;1.37;0.87;;;20.10;99.90;;;;;;5108410;28;20658;-51
2022/09/20 08:46:16;;;;;;;0.63;0.63;;;19.80;99.90;;;;;;5112001;28;20249;-50
2022/09/20 08:48:45;;;;;;;0.53;0.53;;;19.20;99.90;;;;;;5111965;28;20658;-50
2022/09/20 08:51:15;;;;;;;1.43;1.00;;;18.60;99.90;;;;;;5097463;28;20287;-50
2022/09/20 08:53:47;;;;;;;2.97;1.07;;;18.00;99.90;;;;;;5108109;28;20210;-50
2022/09/20 08:56:14;;;;;;;1.00;0.90;;;17.20;99.90;;;;;;5111929;28;20276;-49
2022/09/20 08:58:41;;;;;;;0.93;0.77;;;16.70;99.90;;;;;;5110982;28;20359;-49
2022/09/20 09:01:11;;;;;;;1.53;0.70;;;16.30;99.90;;;;;;5106740;28;20673;-49
2022/09/20 09:03:39;;;;;;;0.90;0.67;;;16.20;99.90;;;;;;5112182;28;20207;-49
2022/09/20 09:06:13;;;;;;;5.87;0.93;;;16.10;99.90;;;;;;5112150;28;20203;-50
2022/09/20 09:08:43;;;;;;;7.50;0.57;;;16.10;99.90;;;;;;5114755;28;20633;-50
2022/09/20 09:11:14;;;;;;;0.60;0.53;;;16.10;99.90;;;;;;5115686;28;20265;-49
2022/09/20 09:13:48;;;;;;;2.27;0.90;;;15.90;99.90;;;;;;5115360;28;20195;-49
2022/09/20 09:16:18;;;;;;;2.10;1.03;;;15.60;99.90;;;;;;5114274;28;20199;-50
2022/09/20 09:18:49;;;;;;;0.87;0.87;;;15.60;99.90;;;;;;5115478;28;20263;-51
2022/09/20 09:21:19;;;;;;;0.50;0.50;;;15.40;99.90;;;;;;5115445;28;20870;-50
2022/09/20 09:23:52;;;;;;;3.40;0.70;;;15.30;99.90;;;;;;5113000;28;20203;-50
2022/09/20 09:26:21;;;;;;;0.70;0.70;;;15.20;99.90;;;;;;5100353;28;20284;-50
2022/09/20 09:29:09;;;;;;;1.30;1.10;;;15.40;99.90;;;;;;5115256;28;20220;-51
2022/09/20 09:31:38;;;;;;;0.80;0.80;;;15.80;99.90;;;;;;5115287;28;20214;-50
2022/09/20 09:34:23;;;;;;;0.80;0.80;;;16.00;99.90;;;;;;5115480;28;20291;-50
2022/09/20 09:36:50;;;;;;;1.30;0.50;;;16.50;99.90;;;;;;5106639;28;20647;-49
2022/09/20 09:39:24;;;;;;;0.93;0.70;;;16.90;99.90;;;;;;5115355;28;20642;-51
2022/09/20 09:41:51;;;;;;;3.50;0.70;;;17.80;99.90;;;;;;5104229;28;20208;-48
2022/09/20 09:44:24;;;;;;;1.07;0.70;;;18.10;99.90;;;;;;5093960;28;20215;-49
2022/09/20 09:46:52;;;;;;;0.70;0.70;;;17.60;99.90;;;;;;5113349;28;20203;-49
2022/09/20 09:49:22;;;;;;;1.13;0.60;;;17.70;99.90;;;;;;5114769;28;20796;-50
2022/09/20 09:52:06;;;;;;;0.87;0.80;;;17.80;99.90;;;;;;5115040;28;20257;-48
2022/09/20 09:54:37;;;;;;;1.03;0.50;;;17.70;99.90;;;;;;5108843;28;20250;-48
2022/09/20 09:57:24;;;;;;;2.77;1.07;;;17.50;99.90;;;;;;5117515;27;20191;-50
2022/09/20 10:00:06;;;;;;;2.83;0.60;;;17.70;99.90;;;;;;5084163;28;20205;-49
2022/09/20 10:03:00;;;;;;;1.43;1.33;;;18.50;99.90;;;;;;5094504;28;20715;-49
2022/09/20 10:05:35;;;;;;;2.27;2.03;;;19.00;99.90;;;;;;5098475;28;20303;-50
2022/09/20 10:08:15;;;;;;;2.47;2.27;;;19.40;99.90;;;;;;5112501;28;20219;-48
2022/09/20 10:10:59;;;;;;;2.70;2.13;;;19.00;99.90;;;;;;5114641;28;20199;-48
2022/09/20 10:13:38;;;;;;;3.10;2.83;;;18.60;99.90;;;;;;5113775;28;20230;-48
2022/09/20 10:16:14;;;;;;;3.50;2.57;;;17.50;99.90;;;;;;5109291;27;20196;-49
2022/09/20 10:18:48;;;;;;;5.43;2.97;;;16.90;99.90;;;;;;5114197;28;20651;-48
2022/09/20 10:21:31;;;;;;;2.70;2.47;;;16.80;99.90;;;;;;5114508;28;20286;-48
2022/09/20 10:24:07;;;;;;;2.27;2.00;;;16.10;99.90;;;;;;5114083;28;20253;-48
2022/09/20 10:26:58;;;;;;;4.50;2.43;;;15.90;99.90;;;;;;5110337;28;20204;-49
2022/09/20 10:29:39;;;;;;;5.33;2.63;;;15.70;99.90;;;;;;5094053;28;20570;-48
2022/09/20 10:32:18;;;;;;;2.87;2.10;;;15.90;99.90;;;;;;5093611;28;20212;-48
2022/09/20 10:35:15;;;;;;;3.97;2.10;;;15.60;99.90;;;;;;5093899;28;20291;-48
2022/09/20 10:38:06;;;;;;;6.17;2.63;;;15.60;99.90;;;;;;5112948;28;20264;-48
2022/09/20 10:43:53;;;;;;;6.87;2.33;;;16.00;99.90;;;;;;5093388;28;20566;-48
2022/09/20 10:46:29;;;;;;;2.37;2.17;;;15.80;99.90;;;;;;5103937;28;20589;-48
2022/09/20 10:49:07;;;;;;;3.53;2.23;;;16.10;99.90;;;;;;5109985;28;20753;-49
2022/09/20 10:51:44;;;;;;;2.43;2.23;;;16.50;99.90;;;;;;5111840;27;20260;-48
2022/09/20 10:54:27;;;;;;;1.93;1.83;;;16.70;99.90;;;;;;5103929;28;20241;-48
2022/09/20 10:57:11;;;;;;;5.00;2.63;;;17.10;99.90;;;;;;5108973;28;20227;-48
2022/09/20 10:59:47;;;;;;;4.00;2.30;;;16.70;99.90;;;;;;5111157;28;20199;-49
2022/09/20 11:02:27;;;;;;;1.60;1.50;;;16.30;99.90;;;;;;5113651;28;20191;-48
2022/09/20 11:05:23;;;;;;;4.13;1.40;;;16.30;99.90;;;;;;5113311;28;20211;-47
2022/09/20 11:07:59;;;;;;;3.87;1.13;;;16.50;99.90;;;;;;5103319;28;20288;-48
2022/09/20 11:10:34;;;;;;;3.93;1.73;;;16.50;99.90;;;;;;5106967;28;20210;-48
2022/09/20 11:13:07;;;;;;;7.27;2.20;;;16.40;99.90;;;;;;5104898;28;20195;-48
2022/09/20 11:15:40;;;;;;;1.60;0.90;;;16.40;99.90;;;;;;5113414;28;20195;-48
2022/09/20 11:18:16;;;;;;;3.53;0.87;;;16.40;99.90;;;;;;5113529;28;20307;-48
2022/09/20 11:20:49;;;;;;;3.10;0.97;;;16.60;99.90;;;;;;5098972;28;20254;-47
2022/09/20 11:23:19;;;;;;;3.57;0.83;;;16.50;99.90;;;;;;5112982;28;20253;-48
2022/09/20 11:25:51;;;;;;;2.00;0.70;;;16.50;99.90;;;;;;5112480;28;20607;-49
2022/09/20 11:28:23;;;;;;;15.40;2.73;;;16.40;99.90;;;;;;5112968;28;20230;-48
2022/09/20 11:30:56;;;;;;;1.80;1.33;;;16.30;99.90;;;;;;5107551;28;20661;-47
2022/09/20 11:33:29;;;;;;;9.80;2.03;;;16.30;99.90;;;;;;5112719;28;20634;-48
2022/09/20 11:36:01;;;;;;;4.93;2.00;;;16.20;99.90;;;;;;5110340;28;20722;-48
2022/09/20 11:38:37;;;;;;;1.23;1.17;;;16.20;99.90;;;;;;5111718;28;20216;-49
2022/09/20 11:41:11;;;;;;;2.13;1.00;;;16.30;99.90;;;;;;5106669;28;20244;-49
2022/09/20 11:43:41;;;;;;;2.10;1.00;;;16.40;99.90;;;;;;5112749;28;20302;-48
2022/09/20 11:46:12;;;;;;;3.13;0.67;;;16.50;99.90;;;;;;5112750;28;20229;-50
2022/09/20 11:48:43;;;;;;;4.40;1.40;;;16.30;99.90;;;;;;5112653;28;20219;-49
2022/09/20 11:52:01;;;;;;;1.20;0.70;;;16.10;99.90;;;;;;5111072;28;20257;-48
2022/09/20 11:54:55;;;;;;;1.57;0.60;;;16.00;99.90;;;;;;5103004;28;20220;-48
2022/09/20 11:57:24;;;;;;;3.07;0.60;;;16.00;99.90;;;;;;5111410;28;20242;-49
2022/09/20 11:59:54;;;;;;;5.07;1.40;;;16.00;99.90;;;;;;5112555;28;20259;-48
2022/09/20 12:02:27;;;;;;;4.40;0.60;;;15.90;99.90;;;;;;5112706;28;20195;-48
2022/09/20 12:04:54;;;;;;;2.50;0.57;;;15.90;99.90;;;;;;5112191;28;20220;-49
2022/09/20 12:07:26;;;;;;;2.07;0.70;;;15.80;99.90;;;;;;5110215;28;20677;-50
2022/09/20 12:09:57;;;;;;;3.70;1.10;;;15.70;99.90;;;;;;5110057;28;20199;-48
2022/09/20 12:12:35;;;;;;;2.43;0.60;;;15.50;99.90;;;;;;5112358;28;20685;-48
2022/09/20 12:15:06;;;;;;;7.13;0.80;;;15.40;99.90;;;;;;5112289;28;20195;-49
2022/09/20 12:18:11;;;;;;;2.67;0.50;;;15.60;99.90;;;;;;5112309;28;20227;-48
2022/09/20 12:21:06;;;;;;;1.37;0.93;;;15.60;99.90;;;;;;5104156;28;20684;-49
2022/09/20 12:24:08;;;;;;;3.97;0.70;;;15.90;99.90;;;;;;5112055;28;20286;-48
2022/09/20 12:26:38;;;;;;;3.67;0.60;;;16.10;99.90;;;;;;5109679;28;20233;-49
2022/09/20 12:29:51;;;;;;;3.30;0.60;;;16.10;99.90;;;;;;5104379;28;20216;-48
2022/09/20 12:32:55;;;;;;;2.60;0.83;;;16.30;99.90;;;;;;5091716;28;20196;-48
2022/09/20 12:35:55;;;;;;;4.43;0.50;;;16.10;99.90;;;;;;5091867;28;20249;-50
2022/09/20 12:38:45;;;;;;;6.40;0.40;;;15.70;99.90;;;;;;5095962;28;20303;-49
2022/09/20 12:41:15;;;;;;;4.63;0.57;;;15.60;99.90;;;;;;5099569;28;20196;-49
2022/09/20 12:43:59;;;;;;;3.20;0.50;;;15.50;99.90;;;;;;5113471;28;20661;-49
2022/09/20 12:46:38;;;;;;;2.20;0.70;;;15.50;99.90;;;;;;5115982;27;20211;-48
2022/09/20 12:52:59;;;;;;;2.83;0.80;;;15.60;99.90;;;;;;5116208;28;20624;-48
2022/09/20 12:55:42;;;;;;;5.40;1.23;;;15.50;99.90;;;;;;5115864;28;20192;-48
2022/09/20 12:58:36;;;;;;;3.70;0.50;;;15.50;99.90;;;;;;5114877;28;20220;-49
2022/09/20 13:01:30;;;;;;;2.63;0.67;;;15.70;99.90;;;;;;5097905;28;20198;-49
2022/09/20 13:04:31;;;;;;;1.10;0.43;;;15.90;99.90;;;;;;5115634;28;20200;-48
2022/09/20 13:07:32;;;;;;;3.27;0.40;;;16.00;99.90;;;;;;5115622;27;20514;-49
2022/09/20 13:10:05;;;;;;;0.57;0.53;;;16.10;99.90;;;;;;5109161;28;20196;-49
2022/09/20 13:12:37;;;;;;;3.13;0.90;;;16.10;99.90;;;;;;5110815;28;20286;-49
2022/09/20 13:15:06;;;;;;;1.60;0.70;;;16.00;99.90;;;;;;5107484;28;20192;-49
2022/09/20 13:17:34;;;;;;;1.70;0.40;;;15.80;99.90;;;;;;5115500;28;20228;-49
2022/09/20 13:20:02;;;;;;;2.03;0.40;;;15.70;99.90;;;;;;5115500;28;20211;-49
2022/09/20 13:22:35;;;;;;;4.70;1.37;;;15.80;99.90;;;;;;5115407;28;20201;-49
2022/09/20 13:25:07;;;;;;;2.10;0.60;;;15.90;99.90;;;;;;5108031;28;20215;-50
2022/09/20 13:27:38;;;;;;;5.20;0.30;;;16.10;99.90;;;;;;5115419;28;20632;-49
2022/09/20 13:30:18;;;;;;;3.37;0.57;;;16.00;99.90;;;;;;5105908;28;20209;-50
2022/09/20 13:32:46;;;;;;;0.87;0.50;;;16.10;99.90;;;;;;5115142;28;20252;-50
2022/09/20 13:35:17;;;;;;;2.13;0.60;;;16.10;99.90;;;;;;5115026;28;20543;-48
2022/09/20 13:37:52;;;;;;;4.13;1.20;;;16.30;99.90;;;;;;5115377;28;20223;-49
2022/09/20 13:40:23;;;;;;;3.10;0.70;;;16.10;99.90;;;;;;5106581;28;20249;-49
2022/09/20 13:42:52;;;;;;;0.63;0.53;;;16.20;99.90;;;;;;5095673;28;20207;-49
2022/09/20 13:45:21;;;;;;;5.80;0.80;;;16.30;99.90;;;;;;5094161;28;20216;-50
2022/09/20 13:47:51;;;;;;;5.10;0.50;;;16.40;99.90;;;;;;5094030;28;20303;-48
2022/09/20 13:50:23;;;;;;;4.27;0.50;;;16.30;99.90;;;;;;5108338;28;20673;-48
2022/09/20 13:52:52;;;;;;;2.17;0.80;;;16.20;99.90;;;;;;5114967;28;20196;-49
2022/09/20 13:55:28;;;;;;;3.90;0.63;;;16.20;99.90;;;;;;5114735;27;20203;-50
2022/09/20 13:57:57;;;;;;;4.33;0.73;;;16.20;99.90;;;;;;5105270;28;20299;-48
2022/09/20 14:00:25;;;;;;;3.33;0.90;;;16.30;99.90;;;;;;5111908;28;20261;-49